sensor_id;sensor_type;location;lat;lon;timestamp;temperature;humidity
25320;DHT22;13256;49.012;8.610;2023-03-01T00:01:41;-1.30;99.90
25320;DHT22;13256;49.012;8.610;2023-03-01T00:04:10;-1.30;99.90
25320;DHT22;13256;49.012;8.610;2023-03-01T00:06:38;-1.30;99.90
25320;DHT22;13256;49.012;8.610;2023-03-01T00:09:07;-1.30;99.90
25320;DHT22;13256;49.012;8.610;2023-03-01T00:11:34;-1.30;99.90
25320;DHT22;13256;49.012;8.610;2023-03-01T00:14:05;-1.20;99.90
25320;DHT22;13256;49.012;8.610;2023-03-01T00:16:37;-1.20;99.90
25320;DHT22;13256;49.012;8.610;2023-03-01T00:19:15;-1.20;99.90
25320;DHT22;13256;49.012;8.610;2023-03-01T00:21:45;-1.10;99.90
25320;DHT22;13256;49.012;8.610;2023-03-01T00:24:12;-1.00;99.90
25320;DHT22;13256;49.012;8.610;2023-03-01T00:26:39;-1.00;99.90
25320;DHT22;13256;49.012;8.610;2023-03-01T00:29:06;-1.00;99.90
25320;DHT22;13256;49.012;8.610;2023-03-01T00:31:34;-0.90;99.90
25320;DHT22;13256;49.012;8.610;2023-03-01T00:34:07;-0.90;99.90
25320;DHT22;13256;49.012;8.610;2023-03-01T00:36:36;-0.80;99.90
25320;DHT22;13256;49.012;8.610;2023-03-01T00:39:04;-0.80;99.90
25320;DHT22;13256;49.012;8.610;2023-03-01T00:41:34;-0.70;99.90
25320;DHT22;13256;49.012;8.610;2023-03-01T00:44:03;-0.70;99.90
25320;DHT22;13256;49.012;8.610;2023-03-01T00:46:30;-0.60;99.90
25320;DHT22;13256;49.012;8.610;2023-03-01T00:48:58;-0.70;99.90
25320;DHT22;13256;49.012;8.610;2023-03-01T00:51:29;-0.70;99.90
25320;DHT22;13256;49.012;8.610;2023-03-01T00:53:59;-0.70;99.90
25320;DHT22;13256;49.012;8.610;2023-03-01T00:56:26;-0.70;99.90
25320;DHT22;13256;49.012;8.610;2023-03-01T00:58:53;-0.70;99.90
25320;DHT22;13256;49.012;8.610;2023-03-01T01:01:24;-0.70;99.90
25320;DHT22;13256;49.012;8.610;2023-03-01T01:03:56;-0.70;99.90
25320;DHT22;13256;49.012;8.610;2023-03-01T01:06:28;-0.70;99.90
25320;DHT22;13256;49.012;8.610;2023-03-01T01:08:58;-0.70;99.90
25320;DHT22;13256;49.012;8.610;2023-03-01T01:11:26;-0.60;99.90
25320;DHT22;13256;49.012;8.610;2023-03-01T01:13:53;-0.60;99.90
25320;DHT22;13256;49.012;8.610;2023-03-01T01:16:22;-0.60;99.90
25320;DHT22;13256;49.012;8.610;2023-03-01T01:18:53;-0.60;99.90
25320;DHT22;13256;49.012;8.610;2023-03-01T01:21:22;-0.60;99.90
25320;DHT22;13256;49.012;8.610;2023-03-01T01:23:51;-0.60;99.90
25320;DHT22;13256;49.012;8.610;2023-03-01T01:26:29;-0.60;99.90
25320;DHT22;13256;49.012;8.610;2023-03-01T01:28:58;-0.60;99.90
25320;DHT22;13256;49.012;8.610;2023-03-01T01:31:25;-0.60;99.90
25320;DHT22;13256;49.012;8.610;2023-03-01T01:33:54;-0.60;99.90
25320;DHT22;13256;49.012;8.610;2023-03-01T01:36:24;-0.60;99.90
25320;DHT22;13256;49.012;8.610;2023-03-01T01:38:51;-0.60;99.90
25320;DHT22;13256;49.012;8.610;2023-03-01T01:41:21;-0.60;99.90
25320;DHT22;13256;49.012;8.610;2023-03-01T01:44:09;-0.60;99.90
25320;DHT22;13256;49.012;8.610;2023-03-01T01:49:16;-0.70;99.90
25320;DHT22;13256;49.012;8.610;2023-03-01T01:51:45;-0.70;99.90
25320;DHT22;13256;49.012;8.610;2023-03-01T01:54:23;-0.70;99.90
25320;DHT22;13256;49.012;8.610;2023-03-01T01:57:03;-0.70;99.90
25320;DHT22;13256;49.012;8.610;2023-03-01T02:00:07;-0.70;99.90
25320;DHT22;13256;49.012;8.610;2023-03-01T02:02:40;-0.70;99.90
25320;DHT22;13256;49.012;8.610;2023-03-01T02:08:25;-0.80;99.90
25320;DHT22;13256;49.012;8.610;2023-03-01T02:10:58;-0.80;99.90
25320;DHT22;13256;49.012;8.610;2023-03-01T02:13:27;-0.80;99.90
25320;DHT22;13256;49.012;8.610;2023-03-01T02:15:54;-0.80;99.90
25320;DHT22;13256;49.012;8.610;2023-03-01T02:18:22;-0.90;99.90
25320;DHT22;13256;49.012;8.610;2023-03-01T02:23:18;-0.90;99.90
25320;DHT22;13256;49.012;8.610;2023-03-01T02:26:02;-0.90;99.90
25320;DHT22;13256;49.012;8.610;2023-03-01T02:28:38;-0.80;99.90
25320;DHT22;13256;49.012;8.610;2023-03-01T02:31:06;-0.90;99.90
25320;DHT22;13256;49.012;8.610;2023-03-01T02:33:53;-0.90;99.90
25320;DHT22;13256;49.012;8.610;2023-03-01T02:36:26;-0.90;99.90
25320;DHT22;13256;49.012;8.610;2023-03-01T02:39:03;-0.90;99.90
25320;DHT22;13256;49.012;8.610;2023-03-01T02:41:34;-1.00;99.90
25320;DHT22;13256;49.012;8.610;2023-03-01T02:44:03;-1.00;99.90
25320;DHT22;13256;49.012;8.610;2023-03-01T02:46:30;-1.00;99.90
25320;DHT22;13256;49.012;8.610;2023-03-01T02:49:16;-1.00;99.90
25320;DHT22;13256;49.012;8.610;2023-03-01T02:54:52;-1.00;99.90
25320;DHT22;13256;49.012;8.610;2023-03-01T02:57:23;-1.00;99.90
25320;DHT22;13256;49.012;8.610;2023-03-01T02:59:53;-1.00;99.90
25320;DHT22;13256;49.012;8.610;2023-03-01T03:02:25;-1.00;99.90
25320;DHT22;13256;49.012;8.610;2023-03-01T03:05:15;-1.00;99.90
25320;DHT22;13256;49.012;8.610;2023-03-01T03:07:44;-1.00;99.90
25320;DHT22;13256;49.012;8.610;2023-03-01T03:10:18;-0.90;99.90
25320;DHT22;13256;49.012;8.610;2023-03-01T03:13:00;-1.00;99.90
25320;DHT22;13256;49.012;8.610;2023-03-01T03:15:31;-0.90;99.90
25320;DHT22;13256;49.012;8.610;2023-03-01T03:18:09;-1.00;99.90
25320;DHT22;13256;49.012;8.610;2023-03-01T03:20:40;-1.00;99.90
25320;DHT22;13256;49.012;8.610;2023-03-01T03:23:09;-1.00;99.90
25320;DHT22;13256;49.012;8.610;2023-03-01T03:25:38;-1.00;99.90
25320;DHT22;13256;49.012;8.610;2023-03-01T03:28:06;-1.00;99.90
25320;DHT22;13256;49.012;8.610;2023-03-01T03:30:39;-1.00;99.90
25320;DHT22;13256;49.012;8.610;2023-03-01T03:33:10;-1.10;99.90
25320;DHT22;13256;49.012;8.610;2023-03-01T03:36:06;-1.10;99.90
25320;DHT22;13256;49.012;8.610;2023-03-01T03:38:32;-1.10;99.90
25320;DHT22;13256;49.012;8.610;2023-03-01T03:41:04;-1.10;99.90
25320;DHT22;13256;49.012;8.610;2023-03-01T03:43:34;-1.10;99.90
25320;DHT22;13256;49.012;8.610;2023-03-01T03:46:03;-1.10;99.90
25320;DHT22;13256;49.012;8.610;2023-03-01T03:48:50;-1.10;99.90
25320;DHT22;13256;49.012;8.610;2023-03-01T03:51:27;-1.10;99.90
25320;DHT22;13256;49.012;8.610;2023-03-01T03:53:54;-1.10;99.90
25320;DHT22;13256;49.012;8.610;2023-03-01T03:56:21;-1.10;99.90
25320;DHT22;13256;49.012;8.610;2023-03-01T03:59:20;-1.10;99.90
25320;DHT22;13256;49.012;8.610;2023-03-01T04:01:48;-1.10;99.90
25320;DHT22;13256;49.012;8.610;2023-03-01T04:04:18;-1.10;99.90
25320;DHT22;13256;49.012;8.610;2023-03-01T04:06:45;-1.10;99.90
25320;DHT22;13256;49.012;8.610;2023-03-01T04:09:14;-1.10;99.90
25320;DHT22;13256;49.012;8.610;2023-03-01T04:11:41;-1.10;99.90
25320;DHT22;13256;49.012;8.610;2023-03-01T04:14:08;-1.10;99.90
25320;DHT22;13256;49.012;8.610;2023-03-01T04:16:40;-1.10;99.90
25320;DHT22;13256;49.012;8.610;2023-03-01T04:19:15;-1.10;99.90
25320;DHT22;13256;49.012;8.610;2023-03-01T04:21:42;-1.10;99.90
25320;DHT22;13256;49.012;8.610;2023-03-01T04:24:10;-1.20;99.90
25320;DHT22;13256;49.012;8.610;2023-03-01T04:26:37;-1.20;99.90
25320;DHT22;13256;49.012;8.610;2023-03-01T04:29:04;-1.20;99.90
25320;DHT22;13256;49.012;8.610;2023-03-01T04:31:31;-1.20;99.90
25320;DHT22;13256;49.012;8.610;2023-03-01T04:33:57;-1.20;99.90
25320;DHT22;13256;49.012;8.610;2023-03-01T04:36:26;-1.20;99.90
25320;DHT22;13256;49.012;8.610;2023-03-01T04:38:57;-1.20;99.90
25320;DHT22;13256;49.012;8.610;2023-03-01T04:41:25;-1.20;99.90
25320;DHT22;13256;49.012;8.610;2023-03-01T04:44:01;-1.20;99.90
25320;DHT22;13256;49.012;8.610;2023-03-01T04:46:31;-1.20;99.90
25320;DHT22;13256;49.012;8.610;2023-03-01T04:48:58;-1.20;99.90
25320;DHT22;13256;49.012;8.610;2023-03-01T04:51:24;-1.20;99.90
25320;DHT22;13256;49.012;8.610;2023-03-01T04:53:51;-1.30;99.90
25320;DHT22;13256;49.012;8.610;2023-03-01T04:56:18;-1.30;99.90
25320;DHT22;13256;49.012;8.610;2023-03-01T04:58:46;-1.30;99.90
25320;DHT22;13256;49.012;8.610;2023-03-01T05:01:16;-1.30;99.90
25320;DHT22;13256;49.012;8.610;2023-03-01T05:03:45;-1.30;99.90
25320;DHT22;13256;49.012;8.610;2023-03-01T05:06:13;-1.30;99.90
25320;DHT22;13256;49.012;8.610;2023-03-01T05:08:42;-1.30;99.90
25320;DHT22;13256;49.012;8.610;2023-03-01T05:11:11;-1.30;99.90
25320;DHT22;13256;49.012;8.610;2023-03-01T05:13:39;-1.30;99.90
25320;DHT22;13256;49.012;8.610;2023-03-01T05:16:07;-1.30;99.90
25320;DHT22;13256;49.012;8.610;2023-03-01T05:18:40;-1.30;99.90
25320;DHT22;13256;49.012;8.610;2023-03-01T05:21:11;-1.30;99.90
25320;DHT22;13256;49.012;8.610;2023-03-01T05:23:38;-1.30;99.90
25320;DHT22;13256;49.012;8.610;2023-03-01T05:26:09;-1.30;99.90
25320;DHT22;13256;49.012;8.610;2023-03-01T05:28:56;-1.30;99.90
25320;DHT22;13256;49.012;8.610;2023-03-01T05:31:35;-1.40;99.90
25320;DHT22;13256;49.012;8.610;2023-03-01T05:34:05;-1.40;99.90
25320;DHT22;13256;49.012;8.610;2023-03-01T05:36:34;-1.40;99.90
25320;DHT22;13256;49.012;8.610;2023-03-01T05:39:04;-1.50;99.90
25320;DHT22;13256;49.012;8.610;2023-03-01T05:41:31;-1.50;99.90
25320;DHT22;13256;49.012;8.610;2023-03-01T05:43:59;-1.50;99.90
25320;DHT22;13256;49.012;8.610;2023-03-01T05:46:26;-1.60;99.90
25320;DHT22;13256;49.012;8.610;2023-03-01T05:48:57;-1.60;99.90
25320;DHT22;13256;49.012;8.610;2023-03-01T05:51:26;-1.60;99.90
25320;DHT22;13256;49.012;8.610;2023-03-01T05:53:53;-1.60;99.90
25320;DHT22;13256;49.012;8.610;2023-03-01T05:56:24;-1.60;99.90
25320;DHT22;13256;49.012;8.610;2023-03-01T05:58:56;-1.60;99.90
25320;DHT22;13256;49.012;8.610;2023-03-01T06:01:37;-1.60;99.90
25320;DHT22;13256;49.012;8.610;2023-03-01T06:04:12;-1.70;99.90
25320;DHT22;13256;49.012;8.610;2023-03-01T06:06:43;-1.70;99.90
25320;DHT22;13256;49.012;8.610;2023-03-01T06:09:41;-1.70;99.90
25320;DHT22;13256;49.012;8.610;2023-03-01T06:12:14;-1.70;99.90
25320;DHT22;13256;49.012;8.610;2023-03-01T06:14:44;-1.70;99.90
25320;DHT22;13256;49.012;8.610;2023-03-01T06:17:13;-1.60;99.90
25320;DHT22;13256;49.012;8.610;2023-03-01T06:19:46;-1.60;99.90
25320;DHT22;13256;49.012;8.610;2023-03-01T06:22:34;-1.60;99.90
25320;DHT22;13256;49.012;8.610;2023-03-01T06:25:04;-1.60;99.90
25320;DHT22;13256;49.012;8.610;2023-03-01T06:27:37;-1.60;99.90
25320;DHT22;13256;49.012;8.610;2023-03-01T06:30:10;-1.50;99.90
25320;DHT22;13256;49.012;8.610;2023-03-01T06:32:42;-1.50;99.90
25320;DHT22;13256;49.012;8.610;2023-03-01T06:35:15;-1.50;99.90
25320;DHT22;13256;49.012;8.610;2023-03-01T06:38:05;-1.50;99.90
25320;DHT22;13256;49.012;8.610;2023-03-01T06:41:02;-1.50;99.90
25320;DHT22;13256;49.012;8.610;2023-03-01T06:43:29;-1.50;99.90
25320;DHT22;13256;49.012;8.610;2023-03-01T06:46:05;-1.50;99.90
25320;DHT22;13256;49.012;8.610;2023-03-01T06:48:36;-1.50;99.90
25320;DHT22;13256;49.012;8.610;2023-03-01T06:51:04;-1.50;99.90
25320;DHT22;13256;49.012;8.610;2023-03-01T06:53:37;-1.50;99.90
25320;DHT22;13256;49.012;8.610;2023-03-01T06:56:07;-1.40;99.90
25320;DHT22;13256;49.012;8.610;2023-03-01T06:58:42;-1.40;99.90
25320;DHT22;13256;49.012;8.610;2023-03-01T07:01:12;-1.40;99.90
25320;DHT22;13256;49.012;8.610;2023-03-01T07:03:40;-1.40;99.90
25320;DHT22;13256;49.012;8.610;2023-03-01T07:06:09;-1.30;99.90
25320;DHT22;13256;49.012;8.610;2023-03-01T07:08:42;-1.30;99.90
25320;DHT22;13256;49.012;8.610;2023-03-01T07:11:22;-1.30;99.90
25320;DHT22;13256;49.012;8.610;2023-03-01T07:13:49;-1.20;99.90
25320;DHT22;13256;49.012;8.610;2023-03-01T07:16:17;-1.20;99.90
25320;DHT22;13256;49.012;8.610;2023-03-01T07:19:11;-1.10;99.90
25320;DHT22;13256;49.012;8.610;2023-03-01T07:21:42;-1.10;99.90
25320;DHT22;13256;49.012;8.610;2023-03-01T07:24:09;-1.00;99.90
25320;DHT22;13256;49.012;8.610;2023-03-01T07:26:36;-1.00;99.90
25320;DHT22;13256;49.012;8.610;2023-03-01T07:29:09;-1.00;99.90
25320;DHT22;13256;49.012;8.610;2023-03-01T07:31:44;-0.90;99.90
25320;DHT22;13256;49.012;8.610;2023-03-01T07:34:12;-0.80;99.90
25320;DHT22;13256;49.012;8.610;2023-03-01T07:36:39;-0.80;99.90
25320;DHT22;13256;49.012;8.610;2023-03-01T07:39:11;-0.70;99.90
25320;DHT22;13256;49.012;8.610;2023-03-01T07:41:41;-0.70;99.90
25320;DHT22;13256;49.012;8.610;2023-03-01T07:44:08;-0.60;99.90
25320;DHT22;13256;49.012;8.610;2023-03-01T07:46:43;-0.50;99.90
25320;DHT22;13256;49.012;8.610;2023-03-01T07:49:15;-0.50;99.90
25320;DHT22;13256;49.012;8.610;2023-03-01T07:51:44;-0.40;99.90
25320;DHT22;13256;49.012;8.610;2023-03-01T07:54:27;-0.30;99.90
25320;DHT22;13256;49.012;8.610;2023-03-01T07:56:55;-0.20;99.90
25320;DHT22;13256;49.012;8.610;2023-03-01T07:59:23;-0.10;99.90
25320;DHT22;13256;49.012;8.610;2023-03-01T08:02:03;0.00;99.90
25320;DHT22;13256;49.012;8.610;2023-03-01T08:04:37;0.10;99.90
25320;DHT22;13256;49.012;8.610;2023-03-01T08:07:06;0.20;99.90
25320;DHT22;13256;49.012;8.610;2023-03-01T08:09:36;0.30;99.90
25320;DHT22;13256;49.012;8.610;2023-03-01T08:12:05;0.40;99.90
25320;DHT22;13256;49.012;8.610;2023-03-01T08:14:56;0.40;99.90
25320;DHT22;13256;49.012;8.610;2023-03-01T08:17:26;0.60;99.90
25320;DHT22;13256;49.012;8.610;2023-03-01T08:19:53;0.70;99.90
25320;DHT22;13256;49.012;8.610;2023-03-01T08:22:22;0.80;99.90
25320;DHT22;13256;49.012;8.610;2023-03-01T08:24:55;0.90;99.90
25320;DHT22;13256;49.012;8.610;2023-03-01T08:27:22;1.00;99.90
25320;DHT22;13256;49.012;8.610;2023-03-01T08:30:15;1.10;99.90
25320;DHT22;13256;49.012;8.610;2023-03-01T08:32:47;1.20;99.90
25320;DHT22;13256;49.012;8.610;2023-03-01T08:35:14;1.40;99.90
25320;DHT22;13256;49.012;8.610;2023-03-01T08:37:43;1.50;99.90
25320;DHT22;13256;49.012;8.610;2023-03-01T08:40:13;1.60;99.90
25320;DHT22;13256;49.012;8.610;2023-03-01T08:42:44;1.70;99.90
25320;DHT22;13256;49.012;8.610;2023-03-01T08:45:20;1.80;99.90
25320;DHT22;13256;49.012;8.610;2023-03-01T08:47:52;2.00;99.90
25320;DHT22;13256;49.012;8.610;2023-03-01T08:50:20;2.10;99.90
25320;DHT22;13256;49.012;8.610;2023-03-01T08:52:48;2.30;99.90
25320;DHT22;13256;49.012;8.610;2023-03-01T08:55:19;2.50;99.90
25320;DHT22;13256;49.012;8.610;2023-03-01T08:57:48;2.60;99.90
25320;DHT22;13256;49.012;8.610;2023-03-01T09:00:16;2.70;99.90
25320;DHT22;13256;49.012;8.610;2023-03-01T09:02:55;2.80;99.90
25320;DHT22;13256;49.012;8.610;2023-03-01T09:05:36;2.80;99.90
25320;DHT22;13256;49.012;8.610;2023-03-01T09:08:06;2.90;99.90
25320;DHT22;13256;49.012;8.610;2023-03-01T09:10:38;3.00;99.90
25320;DHT22;13256;49.012;8.610;2023-03-01T09:13:06;3.10;99.90
25320;DHT22;13256;49.012;8.610;2023-03-01T09:15:42;3.30;99.90
25320;DHT22;13256;49.012;8.610;2023-03-01T09:18:20;3.40;99.90
25320;DHT22;13256;49.012;8.610;2023-03-01T09:20:47;3.50;99.90
25320;DHT22;13256;49.012;8.610;2023-03-01T09:23:35;3.70;99.90
25320;DHT22;13256;49.012;8.610;2023-03-01T09:26:03;3.90;99.90
25320;DHT22;13256;49.012;8.610;2023-03-01T09:28:36;4.20;99.90
25320;DHT22;13256;49.012;8.610;2023-03-01T09:31:06;4.30;99.90
25320;DHT22;13256;49.012;8.610;2023-03-01T09:33:41;4.40;99.90
25320;DHT22;13256;49.012;8.610;2023-03-01T09:36:20;4.50;99.90
25320;DHT22;13256;49.012;8.610;2023-03-01T09:39:18;4.60;99.90
25320;DHT22;13256;49.012;8.610;2023-03-01T09:42:00;4.70;99.90
25320;DHT22;13256;49.012;8.610;2023-03-01T09:47:27;4.80;99.90
25320;DHT22;13256;49.012;8.610;2023-03-01T09:50:17;5.00;99.90
25320;DHT22;13256;49.012;8.610;2023-03-01T09:56:32;5.50;99.90
25320;DHT22;13256;49.012;8.610;2023-03-01T10:11:53;6.20;99.90
25320;DHT22;13256;49.012;8.610;2023-03-01T10:33:29;7.60;99.90
25320;DHT22;13256;49.012;8.610;2023-03-01T10:36:02;7.70;99.90
25320;DHT22;13256;49.012;8.610;2023-03-01T10:38:43;7.30;99.90
25320;DHT22;13256;49.012;8.610;2023-03-01T10:41:19;7.50;99.90
25320;DHT22;13256;49.012;8.610;2023-03-01T10:44:00;7.70;99.90
25320;DHT22;13256;49.012;8.610;2023-03-01T10:46:36;7.80;99.60
25320;DHT22;13256;49.012;8.610;2023-03-01T10:49:22;7.80;99.90
25320;DHT22;13256;49.012;8.610;2023-03-01T10:52:20;8.10;99.90
25320;DHT22;13256;49.012;8.610;2023-03-01T10:55:30;8.20;98.30
25320;DHT22;13256;49.012;8.610;2023-03-01T10:58:22;8.40;98.30
25320;DHT22;13256;49.012;8.610;2023-03-01T11:01:00;8.30;98.60
25320;DHT22;13256;49.012;8.610;2023-03-01T11:06:36;8.60;97.50
25320;DHT22;13256;49.012;8.610;2023-03-01T11:11:44;8.90;95.70
25320;DHT22;13256;49.012;8.610;2023-03-01T11:14:35;9.20;96.60
25320;DHT22;13256;49.012;8.610;2023-03-01T11:17:37;9.30;95.60
25320;DHT22;13256;49.012;8.610;2023-03-01T11:20:39;9.20;95.30
25320;DHT22;13256;49.012;8.610;2023-03-01T11:23:21;9.30;95.60
25320;DHT22;13256;49.012;8.610;2023-03-01T11:26:10;9.40;94.60
25320;DHT22;13256;49.012;8.610;2023-03-01T11:28:50;9.60;94.40
25320;DHT22;13256;49.012;8.610;2023-03-01T11:31:23;9.70;93.70
25320;DHT22;13256;49.012;8.610;2023-03-01T11:33:56;9.80;93.50
25320;DHT22;13256;49.012;8.610;2023-03-01T11:36:58;9.70;93.50
25320;DHT22;13256;49.012;8.610;2023-03-01T11:42:33;9.90;92.20
25320;DHT22;13256;49.012;8.610;2023-03-01T11:50:50;9.90;92.50
25320;DHT22;13256;49.012;8.610;2023-03-01T11:56:52;10.00;91.40
25320;DHT22;13256;49.012;8.610;2023-03-01T12:21:18;11.10;86.90
25320;DHT22;13256;49.012;8.610;2023-03-01T12:24:34;10.80;87.20
25320;DHT22;13256;49.012;8.610;2023-03-01T12:30:10;10.70;88.10
25320;DHT22;13256;49.012;8.610;2023-03-01T12:39:21;11.00;87.70
25320;DHT22;13256;49.012;8.610;2023-03-01T12:54:31;11.20;86.20
25320;DHT22;13256;49.012;8.610;2023-03-01T13:26:17;12.10;81.30
25320;DHT22;13256;49.012;8.610;2023-03-01T13:32:33;12.10;80.60
25320;DHT22;13256;49.012;8.610;2023-03-01T13:44:47;12.40;82.60
25320;DHT22;13256;49.012;8.610;2023-03-01T13:59:01;12.20;78.10
25320;DHT22;13256;49.012;8.610;2023-03-01T14:01:55;12.10;78.00
25320;DHT22;13256;49.012;8.610;2023-03-01T14:04:59;12.20;79.40
25320;DHT22;13256;49.012;8.610;2023-03-01T14:07:28;12.30;78.10
25320;DHT22;13256;49.012;8.610;2023-03-01T14:19:34;11.80;78.40
25320;DHT22;13256;49.012;8.610;2023-03-01T14:22:23;11.80;79.70
25320;DHT22;13256;49.012;8.610;2023-03-01T14:25:05;12.00;79.80
25320;DHT22;13256;49.012;8.610;2023-03-01T14:27:44;12.00;78.60
25320;DHT22;13256;49.012;8.610;2023-03-01T14:30:22;11.90;77.80
25320;DHT22;13256;49.012;8.610;2023-03-01T14:33:01;11.90;79.00
25320;DHT22;13256;49.012;8.610;2023-03-01T14:36:02;12.00;79.30
25320;DHT22;13256;49.012;8.610;2023-03-01T14:38:38;12.10;79.00
25320;DHT22;13256;49.012;8.610;2023-03-01T14:44:36;12.30;77.50
25320;DHT22;13256;49.012;8.610;2023-03-01T14:50:40;12.00;76.00
25320;DHT22;13256;49.012;8.610;2023-03-01T14:53:42;11.80;78.40
25320;DHT22;13256;49.012;8.610;2023-03-01T14:56:27;11.50;79.00
25320;DHT22;13256;49.012;8.610;2023-03-01T14:59:25;11.50;79.00
25320;DHT22;13256;49.012;8.610;2023-03-01T15:01:59;11.40;78.70
25320;DHT22;13256;49.012;8.610;2023-03-01T15:04:33;11.30;77.90
25320;DHT22;13256;49.012;8.610;2023-03-01T15:07:04;11.20;78.20
25320;DHT22;13256;49.012;8.610;2023-03-01T15:09:51;11.00;78.80
25320;DHT22;13256;49.012;8.610;2023-03-01T15:12:40;10.80;79.10
25320;DHT22;13256;49.012;8.610;2023-03-01T15:15:39;10.70;80.40
25320;DHT22;13256;49.012;8.610;2023-03-01T15:18:29;10.60;80.80
25320;DHT22;13256;49.012;8.610;2023-03-01T15:21:09;10.70;81.00
25320;DHT22;13256;49.012;8.610;2023-03-01T15:23:50;10.70;80.20
25320;DHT22;13256;49.012;8.610;2023-03-01T15:29:40;10.40;81.00
25320;DHT22;13256;49.012;8.610;2023-03-01T15:32:31;10.30;81.40
25320;DHT22;13256;49.012;8.610;2023-03-01T15:46:47;10.10;83.00
25320;DHT22;13256;49.012;8.610;2023-03-01T15:49:43;9.90;82.10
25320;DHT22;13256;49.012;8.610;2023-03-01T15:52:39;9.70;82.10
25320;DHT22;13256;49.012;8.610;2023-03-01T15:55:38;9.50;83.40
25320;DHT22;13256;49.012;8.610;2023-03-01T16:02:01;9.10;83.80
25320;DHT22;13256;49.012;8.610;2023-03-01T16:04:29;9.00;84.80
25320;DHT22;13256;49.012;8.610;2023-03-01T16:07:01;8.80;85.20
25320;DHT22;13256;49.012;8.610;2023-03-01T16:09:40;8.70;86.00
25320;DHT22;13256;49.012;8.610;2023-03-01T16:12:19;8.50;86.00
25320;DHT22;13256;49.012;8.610;2023-03-01T16:14:51;8.50;86.00
25320;DHT22;13256;49.012;8.610;2023-03-01T16:17:19;8.40;86.80
25320;DHT22;13256;49.012;8.610;2023-03-01T16:19:47;8.30;87.30
25320;DHT22;13256;49.012;8.610;2023-03-01T16:22:14;8.20;87.30
25320;DHT22;13256;49.012;8.610;2023-03-01T16:24:42;8.10;88.10
25320;DHT22;13256;49.012;8.610;2023-03-01T16:30:06;8.00;87.80
25320;DHT22;13256;49.012;8.610;2023-03-01T16:32:43;7.90;89.00
25320;DHT22;13256;49.012;8.610;2023-03-01T16:35:12;7.90;89.30
25320;DHT22;13256;49.012;8.610;2023-03-01T16:37:44;7.90;88.80
25320;DHT22;13256;49.012;8.610;2023-03-01T16:40:21;7.80;89.30
25320;DHT22;13256;49.012;8.610;2023-03-01T16:43:10;7.70;89.50
25320;DHT22;13256;49.012;8.610;2023-03-01T16:46:29;7.70;89.70
25320;DHT22;13256;49.012;8.610;2023-03-01T16:48:59;7.60;90.00
25320;DHT22;13256;49.012;8.610;2023-03-01T16:51:35;7.50;90.30
25320;DHT22;13256;49.012;8.610;2023-03-01T16:57:44;7.40;90.70
25320;DHT22;13256;49.012;8.610;2023-03-01T17:15:33;7.00;91.50
25320;DHT22;13256;49.012;8.610;2023-03-01T17:24:41;6.80;91.90
25320;DHT22;13256;49.012;8.610;2023-03-01T17:27:15;6.70;92.10
25320;DHT22;13256;49.012;8.610;2023-03-01T17:29:44;6.70;92.20
25320;DHT22;13256;49.012;8.610;2023-03-01T17:32:15;6.60;92.40
25320;DHT22;13256;49.012;8.610;2023-03-01T17:35:02;6.60;92.90
25320;DHT22;13256;49.012;8.610;2023-03-01T17:37:38;6.50;92.70
25320;DHT22;13256;49.012;8.610;2023-03-01T17:40:05;6.40;92.80
25320;DHT22;13256;49.012;8.610;2023-03-01T17:42:39;6.40;93.10
25320;DHT22;13256;49.012;8.610;2023-03-01T17:45:07;6.40;93.20
25320;DHT22;13256;49.012;8.610;2023-03-01T17:47:34;6.30;93.20
25320;DHT22;13256;49.012;8.610;2023-03-01T17:50:01;6.20;93.60
25320;DHT22;13256;49.012;8.610;2023-03-01T17:52:36;6.20;93.80
25320;DHT22;13256;49.012;8.610;2023-03-01T17:55:04;6.10;94.10
25320;DHT22;13256;49.012;8.610;2023-03-01T17:57:40;6.00;94.40
25320;DHT22;13256;49.012;8.610;2023-03-01T18:00:12;6.00;94.50
25320;DHT22;13256;49.012;8.610;2023-03-01T18:02:53;5.90;94.60
25320;DHT22;13256;49.012;8.610;2023-03-01T18:05:31;5.90;95.00
25320;DHT22;13256;49.012;8.610;2023-03-01T18:08:00;5.80;95.10
25320;DHT22;13256;49.012;8.610;2023-03-01T18:10:34;5.70;95.40
25320;DHT22;13256;49.012;8.610;2023-03-01T18:13:22;5.70;95.70
25320;DHT22;13256;49.012;8.610;2023-03-01T18:15:49;5.60;96.20
25320;DHT22;13256;49.012;8.610;2023-03-01T18:18:16;5.50;96.50
25320;DHT22;13256;49.012;8.610;2023-03-01T18:20:56;5.30;96.90
25320;DHT22;13256;49.012;8.610;2023-03-01T18:23:25;5.20;97.50
25320;DHT22;13256;49.012;8.610;2023-03-01T18:26:01;5.10;97.80
25320;DHT22;13256;49.012;8.610;2023-03-01T18:28:29;5.00;98.30
25320;DHT22;13256;49.012;8.610;2023-03-01T18:31:02;4.90;98.60
25320;DHT22;13256;49.012;8.610;2023-03-01T18:33:31;4.70;99.30
25320;DHT22;13256;49.012;8.610;2023-03-01T18:35:59;4.60;99.70
25320;DHT22;13256;49.012;8.610;2023-03-01T18:38:27;4.40;99.90
25320;DHT22;13256;49.012;8.610;2023-03-01T18:41:00;4.30;99.90
25320;DHT22;13256;49.012;8.610;2023-03-01T18:43:30;4.20;99.90
25320;DHT22;13256;49.012;8.610;2023-03-01T18:45:59;4.20;99.90
25320;DHT22;13256;49.012;8.610;2023-03-01T18:48:41;4.10;99.90
25320;DHT22;13256;49.012;8.610;2023-03-01T18:51:15;3.90;99.90
25320;DHT22;13256;49.012;8.610;2023-03-01T18:53:46;3.80;99.90
25320;DHT22;13256;49.012;8.610;2023-03-01T18:56:19;3.70;99.90
25320;DHT22;13256;49.012;8.610;2023-03-01T18:58:48;3.60;99.90
25320;DHT22;13256;49.012;8.610;2023-03-01T19:01:21;3.60;99.90
25320;DHT22;13256;49.012;8.610;2023-03-01T19:03:51;3.40;99.90
25320;DHT22;13256;49.012;8.610;2023-03-01T19:06:19;3.30;99.90
25320;DHT22;13256;49.012;8.610;2023-03-01T19:08:47;3.20;99.90
25320;DHT22;13256;49.012;8.610;2023-03-01T19:11:15;3.10;99.90
25320;DHT22;13256;49.012;8.610;2023-03-01T19:13:46;3.00;99.90
25320;DHT22;13256;49.012;8.610;2023-03-01T19:16:16;2.90;99.90
25320;DHT22;13256;49.012;8.610;2023-03-01T19:18:45;2.80;99.90
25320;DHT22;13256;49.012;8.610;2023-03-01T19:21:21;2.70;99.90
25320;DHT22;13256;49.012;8.610;2023-03-01T19:23:55;2.50;99.90
25320;DHT22;13256;49.012;8.610;2023-03-01T19:26:26;2.50;99.90
25320;DHT22;13256;49.012;8.610;2023-03-01T19:28:54;2.40;99.90
25320;DHT22;13256;49.012;8.610;2023-03-01T19:31:27;2.40;99.90
25320;DHT22;13256;49.012;8.610;2023-03-01T19:33:57;2.30;99.90
25320;DHT22;13256;49.012;8.610;2023-03-01T19:36:40;2.20;99.90
25320;DHT22;13256;49.012;8.610;2023-03-01T19:39:12;2.10;99.90
25320;DHT22;13256;49.012;8.610;2023-03-01T19:42:04;2.10;99.90
25320;DHT22;13256;49.012;8.610;2023-03-01T19:44:31;2.00;99.90
25320;DHT22;13256;49.012;8.610;2023-03-01T19:47:01;2.00;99.90
25320;DHT22;13256;49.012;8.610;2023-03-01T19:49:29;1.90;99.90
25320;DHT22;13256;49.012;8.610;2023-03-01T19:51:56;1.80;99.90
25320;DHT22;13256;49.012;8.610;2023-03-01T19:54:26;1.70;99.90
25320;DHT22;13256;49.012;8.610;2023-03-01T19:56:53;1.60;99.90
25320;DHT22;13256;49.012;8.610;2023-03-01T19:59:24;1.60;99.90
25320;DHT22;13256;49.012;8.610;2023-03-01T20:01:53;1.50;99.90
25320;DHT22;13256;49.012;8.610;2023-03-01T20:04:23;1.50;99.90
25320;DHT22;13256;49.012;8.610;2023-03-01T20:06:49;1.40;99.90
25320;DHT22;13256;49.012;8.610;2023-03-01T20:09:18;1.40;99.90
25320;DHT22;13256;49.012;8.610;2023-03-01T20:11:52;1.40;99.90